createdAt,value
2024-02-08T00:01:01.446Z,2.87
2024-02-08T00:06:15.625Z,2.90
2024-02-08T00:11:18.803Z,2.95
2024-02-08T00:16:22.006Z,2.97
2024-02-08T00:21:25.168Z,2.99
2024-02-08T00:26:28.202Z,3.02
2024-02-08T00:31:31.116Z,3.05
2024-02-08T00:36:34.131Z,3.08
2024-02-08T00:41:37.926Z,3.14
2024-02-08T00:46:41.084Z,3.17
2024-02-08T00:51:44.009Z,3.20
2024-02-08T00:56:46.931Z,3.22
2024-02-08T01:01:49.880Z,3.25
2024-02-08T01:06:52.814Z,3.25
2024-02-08T01:11:56.486Z,3.29
2024-02-08T01:16:59.500Z,3.30
2024-02-08T01:22:02.609Z,3.32
2024-02-08T01:27:05.990Z,3.29
2024-02-08T01:32:09.517Z,3.30
2024-02-08T01:37:16.531Z,3.29
2024-02-08T01:42:19.689Z,3.21
2024-02-08T01:47:23.164Z,3.06
2024-02-08T01:52:26.251Z,2.95
2024-02-08T01:57:29.791Z,2.88
2024-02-08T02:02:37.291Z,2.95
2024-02-08T02:07:40.284Z,3.05
2024-02-08T02:12:46.947Z,3.12
2024-02-08T02:17:50.016Z,3.13
2024-02-08T02:22:53.108Z,3.14
2024-02-08T02:28:02.111Z,3.17
2024-02-08T02:33:07.610Z,3.23
2024-02-08T02:38:14.237Z,3.28
2024-02-08T02:43:17.588Z,3.30
2024-02-08T02:48:22.434Z,3.28
2024-02-08T02:53:25.797Z,3.27
2024-02-08T02:58:28.838Z,3.29
2024-02-08T03:03:39.358Z,3.28
2024-02-08T03:08:45.374Z,3.28
2024-02-08T03:13:50.484Z,3.29
2024-02-08T03:18:53.497Z,3.24
2024-02-08T03:23:58.005Z,3.22
2024-02-08T03:29:01.329Z,3.14
2024-02-08T03:34:04.449Z,2.99
2024-02-08T03:39:14.650Z,2.78
2024-02-08T03:44:17.730Z,2.59
2024-02-08T03:49:21.725Z,2.41
2024-02-08T03:54:31.695Z,2.27
2024-02-08T03:59:42.489Z,2.13
2024-02-08T04:05:01.326Z,2.01
2024-02-08T04:10:21.061Z,1.92
2024-02-08T04:15:42.726Z,1.81
2024-02-08T04:21:04.255Z,1.73
2024-02-08T04:26:28.536Z,1.64
2024-02-08T04:31:50.120Z,1.52
2024-02-08T04:37:11.815Z,1.45
2024-02-08T04:42:33.353Z,1.43
2024-02-08T04:48:05.751Z,1.35
2024-02-08T04:53:29.062Z,1.28
2024-02-08T04:58:56.718Z,1.22
2024-02-08T05:03:55.225Z,1.15
2024-02-08T05:09:01.259Z,1.14
2024-02-08T05:14:06.107Z,1.28
2024-02-08T05:19:12.497Z,1.19
2024-02-08T05:24:15.623Z,1.02
2024-02-08T05:29:22.726Z,0.91
2024-02-08T05:34:27.419Z,0.84
2024-02-08T05:39:31.002Z,0.80
2024-02-08T05:44:41.595Z,0.75
2024-02-08T05:49:51.053Z,0.78
2024-02-08T05:54:54.650Z,0.66
2024-02-08T06:00:01.730Z,0.58
2024-02-08T06:05:11.067Z,0.53
2024-02-08T06:10:16.057Z,0.51
2024-02-08T06:15:23.540Z,0.42
2024-02-08T06:20:46.464Z,0.40
2024-02-08T06:26:21.413Z,0.42
2024-02-08T06:31:35.017Z,0.39
2024-02-08T06:36:59.491Z,0.49
2024-02-08T06:42:28.836Z,0.58
2024-02-08T06:47:52.471Z,0.68
2024-02-08T06:53:14.220Z,0.81
2024-02-08T06:58:36.182Z,0.97
2024-02-08T07:03:59.426Z,1.17
2024-02-08T07:09:22.304Z,1.24
2024-02-08T07:14:44.175Z,1.31
2024-02-08T07:20:05.832Z,1.40
2024-02-08T07:25:27.723Z,1.46
2024-02-08T07:30:49.430Z,1.53
2024-02-08T07:36:11.582Z,1.73
2024-02-08T07:41:20.283Z,1.99
2024-02-08T07:46:32.021Z,2.23
2024-02-08T07:51:35.805Z,2.54
2024-02-08T07:56:47.864Z,2.71
2024-02-08T08:01:52.124Z,3.12
2024-02-08T08:07:01.794Z,4.06
2024-02-08T08:12:06.326Z,4.15
2024-02-08T08:17:09.792Z,3.83
2024-02-08T08:22:26.401Z,5.08
2024-02-08T08:27:48.692Z,8.34
2024-02-08T08:32:54.576Z,9.58
2024-02-08T08:38:20.949Z,9.78
2024-02-08T08:43:25.761Z,9.59
2024-02-08T08:48:35.200Z,10.37
2024-02-08T08:53:48.730Z,11.69
2024-02-08T08:58:52.041Z,12.08
2024-02-08T09:04:24.049Z,11.90
2024-02-08T09:09:50.119Z,10.49
2024-02-08T09:14:55.122Z,9.86
2024-02-08T09:20:00.946Z,9.14
2024-02-08T09:25:22.827Z,8.27
2024-02-08T09:30:40.718Z,9.14
2024-02-08T09:35:44.406Z,10.51
2024-02-08T09:40:48.081Z,10.63
2024-02-08T09:46:10.372Z,10.38
2024-02-08T09:51:24.473Z,10.72
2024-02-08T09:56:51.799Z,11.47
2024-02-08T10:01:57.554Z,11.73
2024-02-08T10:07:07.301Z,12.01
2024-02-08T10:12:21.987Z,11.99
2024-02-08T10:17:42.353Z,12.12
2024-02-08T10:23:06.764Z,12.84
2024-02-08T10:28:10.617Z,13.73
2024-02-08T10:34:12.254Z,13.62
2024-02-08T10:39:27.993Z,12.03
2024-02-08T10:44:36.082Z,10.29
2024-02-08T10:49:46.766Z,8.37
2024-02-08T10:54:58.474Z,6.82
2024-02-08T11:00:14.691Z,5.93
2024-02-08T11:05:23.172Z,5.27
2024-02-08T11:10:33.477Z,4.79
2024-02-08T11:15:49.212Z,4.51
2024-02-08T11:21:05.768Z,4.33
2024-02-08T11:26:09.817Z,4.24
2024-02-08T11:31:23.218Z,4.18
2024-02-08T11:36:36.529Z,4.17
2024-02-08T11:41:44.334Z,4.44
2024-02-08T11:46:52.764Z,5.08
2024-02-08T11:51:56.074Z,4.92
2024-02-08T11:57:07.060Z,4.44
2024-02-08T12:02:13.156Z,4.08
2024-02-08T12:07:21.517Z,3.87
2024-02-08T12:12:26.942Z,3.77
2024-02-08T12:17:30.118Z,4.43
2024-02-08T12:22:33.686Z,5.29
2024-02-08T12:27:37.815Z,4.62
2024-02-08T12:32:41.128Z,4.30
2024-02-08T12:37:56.050Z,4.13
2024-02-08T12:43:10.180Z,5.21
2024-02-08T12:48:22.274Z,6.10
2024-02-08T12:53:27.085Z,5.21
2024-02-08T12:58:46.641Z,4.67
2024-02-08T13:04:01.684Z,5.27
2024-02-08T13:09:36.921Z,6.35
2024-02-08T13:15:08.019Z,5.36
2024-02-08T13:20:20.037Z,4.86
2024-02-08T13:25:31.382Z,5.32
2024-02-08T13:30:38.080Z,5.41
2024-02-08T13:35:42.343Z,5.55
2024-02-08T13:40:46.800Z,5.58
2024-02-08T13:45:56.155Z,5.67
2024-02-08T13:51:07.535Z,5.83
2024-02-08T13:56:13.737Z,6.04
2024-02-08T14:01:26.831Z,6.08
2024-02-08T14:06:31.399Z,5.41
2024-02-08T14:11:40.163Z,5.88
2024-02-08T14:16:46.931Z,7.31
2024-02-08T14:21:55.416Z,5.93
2024-02-08T14:26:58.588Z,4.91
2024-02-08T14:32:07.071Z,4.49
2024-02-08T14:37:13.722Z,6.30
2024-02-08T14:42:26.155Z,7.15
2024-02-08T14:47:32.689Z,6.29
2024-02-08T14:52:37.644Z,4.99
2024-02-08T14:57:43.864Z,4.23
2024-02-08T15:02:57.010Z,3.73
2024-02-08T15:08:09.911Z,4.59
2024-02-08T15:13:20.156Z,5.93
2024-02-08T15:18:40.519Z,5.36
2024-02-08T15:23:50.150Z,4.35
2024-02-08T15:28:58.790Z,4.46
2024-02-08T15:34:23.592Z,4.64
2024-02-08T15:39:30.604Z,4.46
2024-02-08T15:44:37.005Z,4.26
2024-02-08T15:49:44.415Z,4.17
2024-02-08T15:54:52.386Z,4.11
2024-02-08T15:59:58.671Z,4.00
2024-02-08T16:05:15.161Z,3.95
2024-02-08T16:10:25.844Z,3.92
2024-02-08T16:15:29.492Z,3.91
2024-02-08T16:20:40.219Z,3.87
2024-02-08T16:25:46.015Z,3.95
2024-02-08T16:31:00.341Z,3.93
2024-02-08T16:36:24.919Z,3.79
2024-02-08T16:41:32.764Z,3.64
2024-02-08T16:46:38.596Z,3.51
2024-02-08T16:51:52.305Z,3.46
2024-02-08T16:56:57.435Z,3.39
2024-02-08T17:02:13.367Z,3.33
2024-02-08T17:07:47.065Z,3.29
2024-02-08T17:12:56.745Z,3.27
2024-02-08T17:19:09.720Z,3.25
2024-02-08T17:24:23.582Z,3.13
2024-02-08T17:29:36.869Z,3.03
2024-02-08T17:34:41.210Z,3.04
2024-02-08T17:39:49.399Z,3.00
2024-02-08T17:45:02.434Z,2.97
2024-02-08T17:50:06.588Z,2.95
2024-02-08T17:55:09.830Z,2.94
2024-02-08T18:00:23.071Z,2.93
2024-02-08T18:05:28.831Z,2.88
2024-02-08T18:10:51.944Z,2.94
2024-02-08T18:16:04.685Z,2.94
2024-02-08T18:21:15.122Z,2.96
2024-02-08T18:26:28.857Z,3.01
2024-02-08T18:31:38.560Z,3.07
2024-02-08T18:36:47.537Z,3.05
2024-02-08T18:41:52.398Z,3.09
2024-02-08T18:46:56.215Z,3.13
2024-02-08T18:51:59.709Z,3.19
2024-02-08T18:57:10.357Z,3.25
2024-02-08T19:02:13.988Z,3.25
2024-02-08T19:07:19.978Z,3.26
2024-02-08T19:12:27.101Z,3.32
2024-02-08T19:17:31.905Z,3.32
2024-02-08T19:22:35.270Z,3.42
2024-02-08T19:27:39.743Z,3.39
2024-02-08T19:32:44.531Z,3.34
2024-02-08T19:37:51.481Z,3.37
2024-02-08T19:42:54.450Z,3.36
2024-02-08T19:47:57.577Z,3.32
2024-02-08T19:53:07.595Z,3.27
2024-02-08T19:58:11.028Z,3.23
2024-02-08T20:03:21.889Z,3.19
2024-02-08T20:08:27.410Z,3.13
2024-02-08T20:13:31.690Z,3.13
2024-02-08T20:18:38.614Z,3.16
2024-02-08T20:23:41.711Z,3.15
2024-02-08T20:28:45.319Z,3.15
2024-02-08T20:33:49.271Z,3.14
2024-02-08T20:38:55.829Z,3.14
2024-02-08T20:44:08.655Z,3.19
2024-02-08T20:49:16.993Z,3.22
2024-02-08T20:54:20.068Z,3.25
2024-02-08T20:59:24.895Z,3.27
2024-02-08T21:04:29.864Z,3.38
2024-02-08T21:09:32.992Z,3.44
2024-02-08T21:14:36.202Z,3.45
2024-02-08T21:19:44.686Z,3.50
2024-02-08T21:24:49.332Z,3.54
2024-02-08T21:29:55.222Z,3.59
2024-02-08T21:34:58.407Z,3.66
2024-02-08T21:40:02.554Z,3.70
2024-02-08T21:45:06.276Z,3.74
2024-02-08T21:50:11.448Z,3.76
2024-02-08T21:55:17.188Z,3.78
2024-02-08T22:00:20.343Z,3.80
2024-02-08T22:05:23.405Z,3.81
2024-02-08T22:10:27.625Z,3.82
2024-02-08T22:15:33.606Z,3.85
2024-02-08T22:20:36.725Z,3.85
2024-02-08T22:25:39.613Z,3.83
2024-02-08T22:30:44.632Z,3.83
2024-02-08T22:35:48.146Z,3.85
2024-02-08T22:40:51.174Z,3.87
2024-02-08T22:45:54.229Z,3.85
2024-02-08T22:50:57.153Z,3.88
2024-02-08T22:56:01.501Z,3.90
2024-02-08T23:01:24.870Z,3.90
2024-02-08T23:06:32.127Z,3.83
2024-02-08T23:11:38.154Z,3.83
2024-02-08T23:16:41.207Z,3.83
2024-02-08T23:21:53.126Z,3.83
2024-02-08T23:26:56.546Z,3.87
2024-02-08T23:32:00.375Z,3.86
2024-02-08T23:37:08.053Z,3.82
2024-02-08T23:42:11.002Z,3.78
2024-02-08T23:47:18.878Z,3.76
2024-02-08T23:52:21.971Z,3.77
2024-02-08T23:57:24.936Z,3.81
